Time;durP1;ratioP1;P1;durP2;ratioP2;P2;SDS_P1;SDS_P2;PMS_P1;PMS_P2;Temp;Humidity;BMP_temperature;BMP_pressure;BME280_temperature;BME280_humidity;BME280_pressure;Samples;Min_cycle;Max_cycle;Signal;HPM_P1;HPM_P2
2022/04/29 00:00:42;;;;;;;10.45;4.90;;;;;;;17.00;43.34;100929.20;1754983;80;20871;-57
2022/04/29 00:03:11;;;;;;;10.53;5.50;;;;;;;17.23;43.16;100924.75;1753612;81;21888;-64
2022/04/29 00:05:40;;;;;;;11.10;5.92;;;;;;;17.21;43.92;100931.56;1755757;80;21450;-60
2022/04/29 00:08:09;;;;;;;8.18;4.58;;;;;;;17.34;44.05;100925.41;1755762;80;22166;-59
2022/04/29 00:10:37;;;;;;;8.43;5.00;;;;;;;17.20;44.25;100928.63;1755040;81;20878;-57
2022/04/29 00:13:07;;;;;;;11.55;5.58;;;;;;;16.90;45.25;100923.59;1754772;80;21491;-59
2022/04/29 00:15:35;;;;;;;10.90;5.40;;;;;;;17.14;45.12;100920.75;1754797;80;21017;-58
2022/04/29 00:18:02;;;;;;;10.40;5.37;;;;;;;17.11;45.59;100927.75;1754911;81;21071;-58
2022/04/29 00:20:30;;;;;;;10.72;5.42;;;;;;;17.02;46.07;100925.88;1754532;80;20976;-58
2022/04/29 00:22:58;;;;;;;8.95;4.50;;;;;;;16.81;46.57;100923.51;1754931;80;20831;-59
2022/04/29 00:25:26;;;;;;;11.20;4.65;;;;;;;16.85;46.21;100920.76;1754370;81;21668;-58
2022/04/29 00:27:54;;;;;;;8.80;4.62;;;;;;;16.78;46.17;100916.34;1755123;81;22288;-58
2022/04/29 00:30:21;;;;;;;9.53;4.62;;;;;;;16.85;45.70;100918.93;1755042;81;21495;-56
2022/04/29 00:32:49;;;;;;;9.63;5.12;;;;;;;16.77;45.75;100917.84;1755646;80;20983;-59
2022/04/29 00:35:17;;;;;;;8.63;5.25;;;;;;;16.62;46.24;100921.20;1754168;81;21012;-65
2022/04/29 00:37:52;;;;;;;9.60;5.50;;;;;;;16.53;46.49;100917.98;1754620;80;21378;-58
2022/04/29 00:40:22;;;;;;;12.30;5.40;;;;;;;16.53;46.61;100915.36;1754671;81;21140;-58
2022/04/29 00:42:48;;;;;;;9.95;5.30;;;;;;;16.65;46.57;100916.33;1755046;81;21009;-57
2022/04/29 00:45:18;;;;;;;11.55;5.50;;;;;;;16.69;46.32;100912.78;1754032;81;20926;-59
2022/04/29 00:47:46;;;;;;;10.98;5.50;;;;;;;16.60;46.42;100914.84;1754243;80;20976;-60
2022/04/29 00:50:16;;;;;;;12.28;5.30;;;;;;;16.51;46.56;100915.55;1754845;80;21446;-57
2022/04/29 00:52:47;;;;;;;8.88;4.95;;;;;;;16.53;46.79;100910.09;1755283;80;21484;-56
2022/04/29 00:55:14;;;;;;;10.65;5.15;;;;;;;16.48;46.58;100912.03;1754592;81;21016;-58
2022/04/29 00:58:06;;;;;;;10.58;4.80;;;;;;;16.51;46.09;100912.11;1755422;80;21037;-58
2022/04/29 01:00:36;;;;;;;10.05;4.62;;;;;;;16.48;46.62;100919.13;1742880;80;21444;-60
2022/04/29 01:03:04;;;;;;;8.93;4.78;;;;;;;16.46;47.00;100919.31;1755069;80;22005;-58
2022/04/29 01:05:34;;;;;;;9.83;5.33;;;;;;;16.48;47.38;100915.98;1753498;80;21231;-58
2022/04/29 01:08:02;;;;;;;9.90;5.67;;;;;;;16.47;47.95;100916.17;1753417;81;22367;-57
2022/04/29 01:10:31;;;;;;;9.75;5.28;;;;;;;16.45;48.51;100915.07;1754293;80;20954;-59
2022/04/29 01:13:01;;;;;;;9.00;4.58;;;;;;;16.50;48.81;100913.12;1725365;81;22294;-57
2022/04/29 01:15:29;;;;;;;10.85;5.35;;;;;;;16.52;49.27;100913.23;1753238;80;21092;-58
2022/04/29 01:18:01;;;;;;;11.50;6.45;;;;;;;16.69;49.36;100917.53;1753510;81;21158;-59
2022/04/29 01:20:31;;;;;;;9.13;5.72;;;;;;;16.74;49.60;100915.63;1753541;80;21025;-58
2022/04/29 01:23:05;;;;;;;;;;;;;;;16.92;49.44;100916.28;1756174;81;20935;-60
2022/04/29 01:25:32;;;;;;;13.25;5.40;;;;;;;17.21;48.80;100907.84;1741782;81;20508;-57
2022/04/29 01:27:59;;;;;;;9.85;5.45;;;;;;;17.43;48.53;100914.13;1753576;80;21028;-65
2022/04/29 01:30:28;;;;;;;8.63;4.60;;;;;;;17.66;48.43;100915.69;1753830;80;21325;-58
2022/04/29 01:32:54;;;;;;;10.53;5.37;;;;;;;17.81;48.44;100908.82;1753734;81;21013;-57
2022/04/29 01:35:21;;;;;;;8.90;4.62;;;;;;;17.78;48.59;100916.35;1754167;80;21100;-59
2022/04/29 01:37:48;;;;;;;8.83;4.65;;;;;;;17.81;48.70;100918.05;1753960;80;21029;-56
2022/04/29 01:40:16;;;;;;;10.20;5.70;;;;;;;17.91;47.72;100912.28;1752655;81;20978;-59
2022/04/29 01:42:43;;;;;;;12.40;6.17;;;;;;;17.91;47.66;100915.72;1753321;81;21509;-58
2022/04/29 01:45:11;;;;;;;10.85;6.35;;;;;;;18.02;48.13;100912.09;1754120;80;21005;-66
2022/04/29 01:47:42;;;;;;;8.85;5.42;;;;;;;18.10;47.89;100917.09;1752261;80;21523;-58
2022/04/29 01:50:28;;;;;;;9.90;5.62;;;;;;;18.15;47.63;100912.80;1744998;80;21037;-58
2022/04/29 01:52:55;;;;;;;7.78;4.90;;;;;;;18.02;47.94;100916.05;1754572;80;21571;-58
2022/04/29 01:55:23;;;;;;;9.75;5.78;;;;;;;18.20;47.15;100914.78;1753822;80;21255;-57
2022/04/29 01:57:51;;;;;;;6.50;4.35;;;;;;;18.17;47.02;100923.12;1752887;81;21029;-59
2022/04/29 02:00:18;;;;;;;12.73;5.53;;;;;;;18.13;46.60;100928.03;1753193;81;21300;-59
2022/04/29 02:02:48;;;;;;;10.40;5.90;;;;;;;18.19;46.51;100928.49;1753950;80;21069;-57
2022/04/29 02:05:18;;;;;;;7.12;4.50;;;;;;;18.18;47.87;100930.02;1753323;80;20914;-60
2022/04/29 02:07:46;;;;;;;8.30;4.33;;;;;;;18.07;48.05;100928.91;1753458;81;21164;-58
2022/04/29 02:10:14;;;;;;;9.50;4.53;;;;;;;17.95;48.36;100923.50;1753265;81;20949;-60
2022/04/29 02:12:43;;;;;;;9.13;5.20;;;;;;;17.97;48.45;100923.30;1753090;81;20962;-58
2022/04/29 02:15:28;;;;;;;10.65;4.85;;;;;;;17.94;48.66;100922.41;1754096;80;21294;-68
2022/04/29 02:17:57;;;;;;;11.45;5.65;;;;;;;17.94;48.22;100927.68;1752546;81;20815;-58
2022/04/29 02:20:27;;;;;;;10.75;5.53;;;;;;;18.03;47.95;100931.66;1754080;80;21040;-58
2022/04/29 02:22:57;;;;;;;14.18;6.28;;;;;;;18.07;48.25;100930.23;1753096;81;20958;-66
2022/04/29 02:25:24;;;;;;;9.50;5.10;;;;;;;18.09;48.85;100926.84;1753711;81;21060;-59
2022/04/29 02:27:53;;;;;;;9.55;6.28;;;;;;;18.19;48.76;100934.28;1753406;81;20938;-57
2022/04/29 02:30:20;;;;;;;13.68;5.92;;;;;;;18.02;49.53;100939.28;1753989;80;20969;-58
2022/04/29 02:32:47;;;;;;;12.40;6.37;;;;;;;17.89;50.34;100944.16;1753315;81;21181;-61
2022/04/29 02:35:14;;;;;;;11.65;6.08;;;;;;;17.87;51.19;100947.51;1753494;80;21017;-58
2022/04/29 02:37:41;;;;;;;11.90;5.97;;;;;;;17.91;51.78;100946.05;1754028;80;21254;-60
2022/04/29 02:40:10;;;;;;;10.28;5.40;;;;;;;17.89;52.85;100951.27;1754416;80;20986;-57
2022/04/29 02:42:37;;;;;;;10.60;4.75;;;;;;;17.96;53.29;100955.98;1753816;81;21527;-59
2022/04/29 02:45:06;;;;;;;8.43;4.55;;;;;;;17.98;53.20;100957.88;1753418;80;21139;-59
2022/04/29 02:47:45;;;;;;;11.05;5.97;;;;;;;17.98;53.07;100961.84;1752997;80;20939;-63
2022/04/29 02:50:12;;;;;;;11.43;6.17;;;;;;;17.97;53.07;100961.55;1754140;80;21064;-56
2022/04/29 02:52:40;;;;;;;11.03;5.35;;;;;;;18.01;53.23;100954.82;1753167;80;20922;-57
2022/04/29 02:55:09;;;;;;;9.03;4.95;;;;;;;17.97;53.56;100968.95;1754588;80;21782;-56
2022/04/29 02:57:46;;;;;;;16.73;6.70;;;;;;;18.11;53.25;100971.50;1752123;81;21293;-58
2022/04/29 03:00:14;;;;;;;10.32;4.75;;;;;;;18.16;53.13;100972.45;1754072;80;21060;-58
2022/04/29 03:02:40;;;;;;;10.20;5.53;;;;;;;18.27;52.86;100971.47;1753226;81;21058;-56
2022/04/29 03:05:07;;;;;;;10.68;5.87;;;;;;;18.47;52.28;100972.09;1753667;81;21100;-58
2022/04/29 03:07:36;;;;;;;13.13;5.90;;;;;;;18.63;52.08;100970.19;1752982;81;20930;-59
2022/04/29 03:10:08;;;;;;;12.77;6.80;;;;;;;18.70;51.79;100967.00;1754119;80;21132;-56
2022/04/29 03:12:38;;;;;;;12.13;7.40;;;;;;;18.75;51.57;100977.42;1753288;81;21371;-56
2022/04/29 03:15:17;;;;;;;15.27;7.17;;;;;;;18.89;51.37;100973.10;1752253;81;21288;-57
2022/04/29 03:20:36;;;;;;;13.40;7.13;;;;;;;18.98;50.76;100978.09;1741710;81;22023;-56
2022/04/29 03:23:05;;;;;;;13.00;7.03;;;;;;;18.99;50.95;100981.84;1753363;81;21159;-57
2022/04/29 03:25:34;;;;;;;11.20;7.13;;;;;;;19.09;51.35;100978.67;1743583;80;21259;-56
2022/04/29 03:28:02;;;;;;;12.53;7.07;;;;;;;19.39;50.95;100974.73;1754091;80;21171;-57
2022/04/29 03:30:29;;;;;;;12.57;6.37;;;;;;;19.74;50.62;100978.88;1753253;80;21257;-60
2022/04/29 03:32:59;;;;;;;9.67;6.70;;;;;;;20.68;49.35;100972.87;1753924;81;22514;-56
2022/04/29 03:35:27;;;;;;;11.50;6.10;;;;;;;21.74;47.39;100976.01;1753665;80;21957;-58
2022/04/29 03:37:55;;;;;;;13.10;6.07;;;;;;;22.86;45.31;100968.93;1754262;80;21599;-57
2022/04/29 03:40:25;;;;;;;10.23;6.20;;;;;;;23.95;42.46;100960.77;1753144;81;21071;-58
2022/04/29 03:42:55;;;;;;;9.80;5.97;;;;;;;24.73;40.28;100961.52;1753416;81;21481;-56
2022/04/29 03:45:24;;;;;;;9.30;6.67;;;;;;;25.52;38.33;100961.78;1754356;80;21049;-55
2022/04/29 03:47:51;;;;;;;10.63;6.37;;;;;;;26.30;36.72;100972.20;1744853;81;21138;-55
2022/04/29 03:50:23;;;;;;;;;;;;;;;27.02;35.33;100965.30;1754156;80;21425;-57
2022/04/29 03:53:04;;;;;;;8.63;5.40;;;;;;;27.65;34.21;100960.90;1752436;81;20197;-58
2022/04/29 03:55:33;;;;;;;8.53;5.57;;;;;;;28.34;33.20;100966.98;1742696;80;21069;-56
2022/04/29 03:58:04;;;;;;;8.70;5.43;;;;;;;29.31;31.97;100961.77;1753404;81;20939;-57
2022/04/29 04:00:34;;;;;;;8.63;5.90;;;;;;;30.21;30.27;100958.44;1741949;81;21438;-56
2022/04/29 04:03:06;;;;;;;7.47;4.97;;;;;;;30.51;29.18;100965.13;1754979;80;21049;-55
2022/04/29 04:05:35;;;;;;;9.07;5.60;;;;;;;30.22;28.62;100968.64;1755731;80;21005;-57
2022/04/29 04:08:04;;;;;;;8.83;5.53;;;;;;;29.71;28.77;100974.34;1754459;81;21468;-56
2022/04/29 04:10:44;;;;;;;7.22;4.50;;;;;;;29.54;28.81;100974.84;1746507;80;20874;-58
2022/04/29 04:13:14;;;;;;;6.87;4.50;;;;;;;29.46;28.65;100978.74;1756196;80;21258;-57
2022/04/29 04:15:50;;;;;;;6.63;4.50;;;;;;;29.49;28.29;100976.82;1754600;81;20949;-56
2022/04/29 04:18:18;;;;;;;6.77;4.40;;;;;;;29.82;28.49;100981.70;1755755;81;21566;-55
2022/04/29 04:20:48;;;;;;;6.13;3.83;;;;;;;30.43;28.26;100979.83;1755548;81;21468;-56
2022/04/29 04:23:16;;;;;;;5.08;3.50;;;;;;;30.95;26.68;100977.70;1756081;81;20938;-64
2022/04/29 04:25:45;;;;;;;7.37;4.20;;;;;;;30.95;26.68;100977.70;1755375;80;20973;-56
2022/04/29 04:28:15;;;;;;;6.93;4.23;;;;;;;30.49;26.74;100975.38;1755383;81;21016;-57
2022/04/29 04:30:46;;;;;;;5.00;4.03;;;;;;;30.26;27.23;100977.16;1755155;80;21514;-58
2022/04/29 04:33:13;;;;;;;4.97;3.07;;;;;;;30.80;26.29;100974.81;1755444;81;20910;-62
2022/04/29 04:35:41;;;;;;;4.20;2.70;;;;;;;31.16;25.18;100975.36;1755477;81;21028;-56
2022/04/29 04:38:10;;;;;;;6.17;2.47;;;;;;;31.64;24.20;100968.87;1760033;81;20922;-57
2022/04/29 04:40:51;;;;;;;8.75;3.20;;;;;;;32.58;22.20;100966.97;1754098;81;20914;-56
2022/04/29 04:43:20;;;;;;;4.17;2.80;;;;;;;33.26;21.57;100967.91;1754428;81;21013;-58
2022/04/29 04:45:48;;;;;;;6.00;2.55;;;;;;;34.02;20.41;100974.92;1755694;80;21474;-56
2022/04/29 04:48:35;;;;;;;6.72;3.22;;;;;;;34.40;19.24;100965.99;1754987;81;21008;-64
2022/04/29 04:51:21;;;;;;;4.05;2.60;;;;;;;34.71;19.20;100972.44;1755016;81;21459;-56
2022/04/29 04:53:55;;;;;;;4.10;2.42;;;;;;;34.81;18.64;100968.53;1755336;80;21484;-57
2022/04/29 04:56:26;;;;;;;4.40;2.37;;;;;;;34.73;18.38;100971.53;1755142;80;21059;-56
2022/04/29 04:58:54;;;;;;;4.27;2.60;;;;;;;34.97;18.44;100969.55;1754755;80;21514;-57
2022/04/29 05:01:21;;;;;;;4.00;2.55;;;;;;;35.22;18.26;100969.69;1755080;81;21068;-57
2022/04/29 05:04:08;;;;;;;4.30;2.33;;;;;;;35.13;17.95;100964.91;1754871;80;21151;-57
2022/04/29 05:06:52;;;;;;;6.05;2.37;;;;;;;34.92;17.65;100962.95;1755118;80;21823;-56
2022/04/29 05:09:20;;;;;;;4.70;2.37;;;;;;;34.64;17.58;100967.31;1755540;80;21542;-56
2022/04/29 05:11:48;;;;;;;4.40;2.30;;;;;;;34.51;17.91;100965.88;1754669;81;20997;-56
2022/04/29 05:14:35;;;;;;;4.37;2.52;;;;;;;34.80;17.63;100967.75;1754950;80;21335;-57
2022/04/29 05:17:04;;;;;;;4.33;2.98;;;;;;;34.96;17.37;100972.01;1755142;81;21151;-56
2022/04/29 05:19:51;;;;;;;5.45;2.52;;;;;;;35.04;16.90;100966.31;1746871;80;20898;-59
2022/04/29 05:22:20;;;;;;;5.58;2.45;;;;;;;35.12;16.92;100974.14;1755200;80;21391;-56
2022/04/29 05:24:49;;;;;;;4.72;2.80;;;;;;;35.56;16.67;100970.73;1755075;80;20974;-57
2022/04/29 05:27:20;;;;;;;3.75;2.50;;;;;;;35.50;16.74;100970.73;1721664;81;20982;-56
2022/04/29 05:30:09;;;;;;;4.70;2.52;;;;;;;35.42;16.80;100963.45;1700279;82;22104;-57
2022/04/29 05:32:42;;;;;;;4.95;2.65;;;;;;;35.47;16.72;100971.37;1640964;84;21164;-60
2022/04/29 05:35:27;;;;;;;4.33;2.45;;;;;;;35.50;16.64;100977.52;1727831;81;21044;-55
2022/04/29 05:38:13;;;;;;;4.95;2.95;;;;;;;35.17;16.80;100979.37;1755089;81;20883;-57
2022/04/29 05:43:28;;;;;;;4.30;2.62;;;;;;;35.13;16.77;100986.59;1755870;80;21309;-55
2022/04/29 05:45:55;;;;;;;4.62;3.02;;;;;;;35.10;16.66;100984.77;1755989;80;21425;-55
2022/04/29 05:48:23;;;;;;;5.12;2.75;;;;;;;34.91;16.87;100989.03;1734741;81;20981;-63
2022/04/29 05:50:50;;;;;;;4.58;3.08;;;;;;;35.21;16.82;100988.43;1755276;81;22148;-55
2022/04/29 05:53:19;;;;;;;5.37;2.58;;;;;;;35.61;16.50;100985.20;1755929;80;20974;-55
2022/04/29 05:55:48;;;;;;;5.55;2.67;;;;;;;35.85;16.46;100982.56;1754960;81;21080;-57
2022/04/29 05:58:15;;;;;;;4.03;2.58;;;;;;;36.07;16.45;100981.39;1756170;80;20969;-56
2022/04/29 06:00:44;;;;;;;3.47;2.40;;;;;;;36.30;16.15;100981.16;1754692;80;20949;-56
2022/04/29 06:03:11;;;;;;;3.52;2.12;;;;;;;36.55;15.97;100978.44;1755373;80;21076;-56
2022/04/29 06:05:39;;;;;;;4.75;2.50;;;;;;;36.63;15.61;100974.80;1754770;81;21507;-57
2022/04/29 06:08:07;;;;;;;7.05;2.10;;;;;;;36.48;15.82;100974.97;1755316;80;21057;-56
2022/04/29 06:10:37;;;;;;;3.90;2.62;;;;;;;36.05;15.72;100980.34;1753547;81;21002;-55
2022/04/29 06:13:08;;;;;;;3.55;1.92;;;;;;;35.90;16.16;100974.77;1754912;80;20895;-56
2022/04/29 06:15:36;;;;;;;3.05;1.80;;;;;;;35.87;15.77;100974.86;1753699;81;21633;-55
2022/04/29 06:18:14;;;;;;;5.87;2.27;;;;;;;35.57;15.79;100975.05;1752845;81;20979;-56
2022/04/29 06:20:40;;;;;;;3.25;1.52;;;;;;;35.48;16.27;100975.66;1754107;80;21745;-57
2022/04/29 06:23:17;;;;;;;5.28;2.00;;;;;;;35.56;16.06;100978.08;1754849;80;20887;-56
2022/04/29 06:25:43;;;;;;;3.75;2.37;;;;;;;35.46;16.41;100975.21;1754264;80;21017;-55
2022/04/29 06:28:14;;;;;;;2.12;1.57;;;;;;;35.46;16.40;100975.75;1753294;81;20946;-58
2022/04/29 06:30:42;;;;;;;3.22;2.15;;;;;;;35.24;16.25;100967.45;1753723;81;20977;-56
2022/04/29 06:33:31;;;;;;;4.08;2.55;;;;;;;35.12;16.19;100977.67;1749316;80;21236;-63
2022/04/29 06:35:57;;;;;;;7.15;2.35;;;;;;;34.85;16.45;100983.83;1703921;81;21128;-63
2022/04/29 06:38:26;;;;;;;4.37;2.30;;;;;;;34.39;16.92;100980.06;1753922;80;20936;-55
2022/04/29 06:40:56;;;;;;;5.62;2.37;;;;;;;34.62;16.81;100985.23;1753424;81;21042;-55
2022/04/29 06:43:28;;;;;;;;;;;;;;;34.76;16.70;100991.20;1755780;80;20992;-62
2022/04/29 06:46:08;;;;;;;6.20;2.10;;;;;;;34.82;16.46;100983.13;1720584;81;21713;-56
2022/04/29 06:48:53;;;;;;;3.42;1.98;;;;;;;34.71;16.95;100991.40;1753584;81;20923;-57
2022/04/29 06:51:38;;;;;;;4.33;2.05;;;;;;;34.82;16.84;100991.25;1754371;80;21072;-56
2022/04/29 06:54:08;;;;;;;6.10;2.17;;;;;;;35.35;16.05;100999.80;1752770;80;21661;-56
2022/04/29 06:56:37;;;;;;;3.92;1.87;;;;;;;34.94;16.21;101005.42;1753887;81;21026;-62
2022/04/29 06:59:05;;;;;;;3.58;2.10;;;;;;;34.49;16.82;101003.30;1751591;80;40501;-56
2022/04/29 07:01:34;;;;;;;3.37;2.10;;;;;;;34.47;17.36;101002.80;1742402;80;21049;-59
2022/04/29 07:04:02;;;;;;;4.97;2.22;;;;;;;34.84;17.11;100996.32;1753370;81;21052;-56
2022/04/29 07:06:29;;;;;;;4.55;2.10;;;;;;;35.01;16.77;100997.59;1754675;80;20986;-56
2022/04/29 07:08:56;;;;;;;4.00;2.05;;;;;;;35.19;16.62;101000.16;1753408;80;21649;-56
2022/04/29 07:11:42;;;;;;;3.08;2.22;;;;;;;35.31;16.09;100997.52;1753086;80;21554;-56
2022/04/29 07:14:18;;;;;;;3.85;2.00;;;;;;;35.52;16.29;100999.65;1752869;81;21524;-61
2022/04/29 07:16:58;;;;;;;2.80;1.65;;;;;;;35.78;16.14;101001.31;1752824;80;20962;-63
2022/04/29 07:19:40;;;;;;;4.17;1.67;;;;;;;35.48;15.62;101001.98;1753970;81;21045;-57
2022/04/29 07:22:08;;;;;;;4.28;1.70;;;;;;;34.67;16.29;101005.36;1752988;81;20958;-63
2022/04/29 07:24:38;;;;;;;4.03;1.60;;;;;;;34.41;16.89;100991.94;1753176;80;21421;-58
2022/04/29 07:27:07;;;;;;;3.00;1.65;;;;;;;34.13;16.63;100992.38;1752638;81;21014;-56
2022/04/29 07:29:35;;;;;;;3.33;1.80;;;;;;;34.23;16.65;101005.31;1753360;81;21838;-56
2022/04/29 07:32:07;;;;;;;2.95;1.57;;;;;;;34.06;17.20;100998.84;1752590;81;20918;-57
2022/04/29 07:43:16;;;;;;;5.37;1.40;;;;;;;34.23;16.70;100994.48;1752932;81;21025;-56
2022/04/29 07:45:44;;;;;;;2.83;1.80;;;;;;;34.42;16.52;100992.73;1754204;80;21376;-58
2022/04/29 07:48:31;;;;;;;5.15;1.55;;;;;;;34.57;16.14;100994.34;1746564;80;21540;-55
2022/04/29 07:51:00;;;;;;;3.12;1.50;;;;;;;34.94;15.62;100994.59;1752344;81;21247;-57
2022/04/29 07:53:28;;;;;;;3.00;1.30;;;;;;;35.03;15.83;100997.25;1752963;81;21512;-62
2022/04/29 07:55:55;;;;;;;3.02;1.45;;;;;;;34.73;15.62;100993.77;1753605;81;21068;-57
2022/04/29 07:58:24;;;;;;;2.00;1.40;;;;;;;34.60;15.95;100988.27;1753920;81;21543;-58
2022/04/29 08:00:52;;;;;;;2.37;1.72;;;;;;;34.43;15.67;100988.89;1753350;81;21554;-57
2022/04/29 08:03:18;;;;;;;4.20;1.82;;;;;;;34.46;15.61;100984.19;1754390;80;21435;-55
2022/04/29 08:05:55;;;;;;;2.62;1.40;;;;;;;34.45;15.89;100983.39;1754225;80;21115;-56
2022/04/29 08:08:23;;;;;;;2.55;1.57;;;;;;;34.83;15.51;100986.62;1753316;81;20894;-56
2022/04/29 08:10:50;;;;;;;2.95;1.32;;;;;;;34.78;14.79;100983.55;1753211;80;20978;-57
2022/04/29 08:13:18;;;;;;;2.85;1.32;;;;;;;34.59;15.03;100981.28;1754162;80;21901;-56
2022/04/29 08:16:04;;;;;;;2.17;1.22;;;;;;;34.16;15.26;100982.02;1683828;85;21176;-57
2022/04/29 08:18:48;;;;;;;2.52;1.20;;;;;;;34.23;15.42;100974.19;1737243;81;21537;-56
2022/04/29 08:21:17;;;;;;;2.75;1.35;;;;;;;34.17;14.90;100980.33;1753094;80;20962;-56
2022/04/29 08:23:44;;;;;;;4.15;1.40;;;;;;;33.83;15.71;100979.32;1754012;80;21033;-57
2022/04/29 08:26:12;;;;;;;2.65;1.52;;;;;;;34.17;15.83;100987.09;1753837;81;21013;-57
2022/04/29 08:28:42;;;;;;;1.87;1.15;;;;;;;34.74;15.17;100980.45;1752992;81;21065;-57
2022/04/29 08:31:09;;;;;;;2.52;1.35;;;;;;;35.07;14.80;100981.92;1753729;80;20949;-63
2022/04/29 08:33:47;;;;;;;2.50;1.55;;;;;;;35.01;14.15;100977.28;1752426;80;20867;-57
2022/04/29 08:36:16;;;;;;;4.03;2.05;;;;;;;35.23;14.56;100970.73;1753300;81;20947;-57
2022/04/29 08:38:43;;;;;;;2.72;1.30;;;;;;;35.03;14.38;100962.82;1754381;80;21346;-58
2022/04/29 08:41:11;;;;;;;2.85;1.30;;;;;;;34.97;14.48;100973.62;1744471;81;21264;-56
2022/04/29 08:43:39;;;;;;;3.27;1.20;;;;;;;34.48;14.78;100958.95;1753975;81;20954;-55
2022/04/29 08:46:08;;;;;;;2.10;1.27;;;;;;;34.95;14.61;100965.58;1753569;80;21480;-58
2022/04/29 08:48:41;;;;;;;2.37;1.02;;;;;;;35.07;14.12;100958.89;1735595;81;21807;-55
2022/04/29 08:51:09;;;;;;;2.05;1.00;;;;;;;34.84;14.29;100963.82;1753815;80;21025;-56
2022/04/29 08:53:37;;;;;;;3.77;1.10;;;;;;;34.74;14.59;100954.72;1753836;81;20965;-56
2022/04/29 08:58:50;;;;;;;2.62;1.50;;;;;;;34.32;15.02;100950.03;1685382;82;21438;-62
2022/04/29 09:01:20;;;;;;;1.95;1.30;;;;;;;34.51;14.84;100946.93;1754520;80;21075;-55
2022/04/29 09:03:47;;;;;;;1.80;1.20;;;;;;;34.68;14.73;100941.16;1753725;81;20989;-63
2022/04/29 09:06:17;;;;;;;1.67;1.05;;;;;;;35.19;14.58;100937.25;1755163;80;21468;-56
2022/04/29 09:08:45;;;;;;;4.97;1.75;;;;;;;35.84;14.03;100934.87;1754595;81;21036;-60
2022/04/29 09:11:23;;;;;;;1.75;1.15;;;;;;;35.96;13.52;100934.09;1755406;80;21350;-55
2022/04/29 09:13:50;;;;;;;2.17;1.10;;;;;;;35.30;13.88;100934.36;1754629;81;20981;-57
2022/04/29 09:16:17;;;;;;;2.62;1.32;;;;;;;34.52;14.50;100931.48;1755167;81;21542;-58
2022/04/29 09:18:48;;;;;;;2.55;1.35;;;;;;;34.13;15.05;100916.62;1754252;81;22301;-57
2022/04/29 09:21:18;;;;;;;2.35;1.32;;;;;;;33.83;15.12;100925.77;1754776;81;25155;-56
2022/04/29 09:23:55;;;;;;;2.43;1.40;;;;;;;33.15;15.19;100917.48;1754463;81;20926;-58
2022/04/29 09:26:38;;;;;;;1.97;1.00;;;;;;;32.91;15.83;100910.60;1755198;81;21307;-57
2022/04/29 09:29:24;;;;;;;2.67;1.10;;;;;;;33.40;15.44;100899.62;1754363;81;21530;-57
2022/04/29 09:32:04;;;;;;;3.30;1.10;;;;;;;33.85;15.13;100901.91;1754693;80;22471;-57
2022/04/29 09:34:53;;;;;;;2.27;1.00;;;;;;;34.03;15.34;100899.39;1720913;80;20962;-57
2022/04/29 09:37:24;;;;;;;2.12;1.15;;;;;;;33.89;14.94;100897.44;1754439;80;21088;-61
2022/04/29 09:40:02;;;;;;;2.73;1.23;;;;;;;33.80;15.23;100900.75;1755190;81;21383;-55
2022/04/29 09:42:37;;;;;;;3.07;1.27;;;;;;;34.32;15.74;100904.56;1754630;80;20922;-57
2022/04/29 09:45:24;;;;;;;2.53;1.10;;;;;;;34.58;14.83;100907.13;1755097;80;21239;-61
2022/04/29 09:47:56;;;;;;;2.30;1.30;;;;;;;34.50;14.88;100899.87;1750050;81;20973;-57
2022/04/29 09:50:46;;;;;;;2.90;1.10;;;;;;;34.39;14.76;100903.48;1754977;80;21004;-57
2022/04/29 09:53:26;;;;;;;3.50;1.20;;;;;;;34.14;15.26;100899.27;1754923;80;21571;-59
2022/04/29 09:56:11;;;;;;;2.67;1.37;;;;;;;34.12;14.85;100900.70;1755328;81;21055;-56
2022/04/29 09:58:38;;;;;;;2.13;1.27;;;;;;;33.96;15.33;100901.78;1754827;80;21231;-57
2022/04/29 10:01:05;;;;;;;2.37;1.27;;;;;;;34.06;15.05;100909.57;1755025;80;21335;-58
2022/04/29 10:03:35;;;;;;;2.47;1.20;;;;;;;34.71;14.12;100910.72;1743327;80;21030;-57
2022/04/29 10:06:03;;;;;;;2.30;1.22;;;;;;;34.78;14.19;100906.36;1755871;80;21045;-56
2022/04/29 10:08:31;;;;;;;7.07;1.60;;;;;;;34.82;14.50;100909.20;1754058;81;21040;-61
2022/04/29 10:10:59;;;;;;;1.77;1.13;;;;;;;34.93;14.18;100917.16;1755081;80;21728;-55
2022/04/29 10:13:27;;;;;;;3.00;1.40;;;;;;;35.32;13.62;100902.88;1754348;81;21750;-57
2022/04/29 10:16:06;;;;;;;3.25;1.27;;;;;;;35.42;13.69;100898.39;1753012;81;21009;-55
2022/04/29 10:22:04;;;;;;;4.28;1.65;;;;;;;35.78;13.55;100898.23;1714905;81;21471;-58
2022/04/29 10:24:31;;;;;;;2.47;1.00;;;;;;;35.88;13.37;100893.72;1754553;81;21369;-55
2022/04/29 10:26:58;;;;;;;2.33;1.10;;;;;;;35.57;13.08;100897.77;1755030;81;21328;-57
2022/04/29 10:29:27;;;;;;;1.82;1.37;;;;;;;35.27;13.29;100894.39;1755010;80;21107;-55
2022/04/29 10:32:11;;;;;;;5.78;1.40;;;;;;;35.21;13.64;100890.86;1754615;80;21068;-56
2022/04/29 10:34:38;;;;;;;1.37;1.07;;;;;;;35.10;13.99;100899.41;1754838;81;21367;-57
2022/04/29 10:37:13;;;;;;;3.10;1.17;;;;;;;35.52;13.80;100891.75;1754574;81;22283;-58
2022/04/29 10:39:42;;;;;;;1.85;1.20;;;;;;;35.70;13.52;100896.42;1755017;80;21547;-58
2022/04/29 10:42:10;;;;;;;2.95;1.82;;;;;;;35.47;13.22;100890.03;1754363;81;21567;-58
2022/04/29 10:45:01;;;;;;;2.55;1.20;;;;;;;34.98;13.36;100895.84;1755062;81;21757;-56
2022/04/29 10:47:36;;;;;;;1.92;1.20;;;;;;;34.82;13.95;100889.67;1755651;80;21789;-62
2022/04/29 10:50:36;;;;;;;1.92;1.10;;;;;;;35.32;13.46;100894.73;1729001;82;21507;-58
2022/04/29 10:53:21;;;;;;;2.92;1.42;;;;;;;34.88;13.32;100890.25;1716296;82;21552;-57
2022/04/29 10:55:50;;;;;;;2.17;1.42;;;;;;;34.57;14.05;100890.09;1717327;81;20999;-57
2022/04/29 10:58:21;;;;;;;2.12;1.27;;;;;;;34.59;14.44;100893.28;1751026;81;21461;-56
2022/04/29 11:01:27;;;;;;;2.83;1.60;;;;;;;34.67;14.31;100885.42;1754612;80;20973;-63
2022/04/29 11:03:54;;;;;;;2.70;1.00;;;;;;;34.77;14.44;100880.38;1755157;80;21191;-58
2022/04/29 11:06:45;;;;;;;1.65;1.22;;;;;;;35.15;14.07;100877.28;1754117;80;21535;-61
2022/04/29 11:09:35;;;;;;;2.17;1.15;;;;;;;35.71;13.52;100879.01;1738219;81;20922;-57
2022/04/29 11:12:05;;;;;;;2.00;1.15;;;;;;;35.79;13.01;100873.47;1755165;81;21350;-57
2022/04/29 11:15:16;;;;;;;3.70;1.30;;;;;;;35.66;13.06;100873.82;1746058;81;21010;-57
2022/04/29 11:17:52;;;;;;;2.83;0.90;;;;;;;35.44;13.24;100877.14;1739430;81;21283;-57
2022/04/29 11:20:24;;;;;;;2.57;1.10;;;;;;;35.06;13.22;100870.04;1754278;80;21455;-56
2022/04/29 11:26:00;;;;;;;2.27;1.30;;;;;;;34.41;13.99;100872.05;1754695;81;21004;-59
2022/04/29 11:28:34;;;;;;;2.27;1.20;;;;;;;33.95;14.32;100871.80;1753474;80;21077;-56
2022/04/29 11:31:21;;;;;;;2.00;1.20;;;;;;;33.56;14.91;100868.28;1754535;81;21543;-60
2022/04/29 11:33:49;;;;;;;2.83;1.53;;;;;;;33.52;14.43;100862.50;1754247;81;21097;-60
2022/04/29 11:36:18;;;;;;;2.70;1.20;;;;;;;33.33;14.43;100862.84;1755307;81;21000;-58
2022/04/29 11:38:46;;;;;;;2.30;1.20;;;;;;;33.13;14.52;100861.05;1755446;81;20970;-56
2022/04/29 11:41:21;;;;;;;2.83;1.40;;;;;;;32.97;14.85;100854.57;1755747;80;21080;-57
2022/04/29 11:43:49;;;;;;;3.87;1.47;;;;;;;32.89;14.70;100852.09;1754864;80;21638;-57
2022/04/29 11:46:17;;;;;;;4.87;1.60;;;;;;;32.72;14.83;100848.03;1755975;80;21029;-56
2022/04/29 11:48:58;;;;;;;2.57;1.57;;;;;;;32.61;14.96;100850.24;1755480;81;21492;-56
2022/04/29 11:51:27;;;;;;;2.93;1.40;;;;;;;32.45;15.12;100847.22;1754197;80;20914;-60
2022/04/29 11:54:04;;;;;;;3.70;1.80;;;;;;;32.53;15.07;100842.16;1756060;80;21490;-55
2022/04/29 11:56:35;;;;;;;3.33;1.27;;;;;;;32.38;15.23;100840.67;1755623;81;21212;-57
2022/04/29 11:59:08;;;;;;;;;;;;;;;32.21;15.65;100841.45;1737676;81;21048;-60
2022/04/29 12:01:36;;;;;;;2.80;1.40;;;;;;;32.09;15.56;100835.32;1749502;80;20224;-57
2022/04/29 12:04:04;;;;;;;3.83;2.10;;;;;;;31.99;15.57;100839.65;1755920;80;21033;-56
2022/04/29 12:06:32;;;;;;;4.20;2.23;;;;;;;31.93;15.52;100835.50;1755356;81;21005;-57
2022/04/29 12:08:59;;;;;;;3.60;1.90;;;;;;;32.13;15.42;100833.59;1753704;81;22284;-60